sensor_id;sensor_type;location;lat;lon;timestamp;temperature;humidity
13892;DHT22;7016;48.172;8.058;2023-02-01T00:02:02;5.20;99.90
13892;DHT22;7016;48.172;8.058;2023-02-01T00:04:28;5.30;99.90
13892;DHT22;7016;48.172;8.058;2023-02-01T00:06:53;5.30;99.90
13892;DHT22;7016;48.172;8.058;2023-02-01T00:09:19;5.30;99.90
13892;DHT22;7016;48.172;8.058;2023-02-01T00:11:45;5.30;99.90
13892;DHT22;7016;48.172;8.058;2023-02-01T00:14:11;5.20;99.90
13892;DHT22;7016;48.172;8.058;2023-02-01T00:16:37;5.20;99.90
13892;DHT22;7016;48.172;8.058;2023-02-01T00:19:07;5.20;99.90
13892;DHT22;7016;48.172;8.058;2023-02-01T00:21:33;5.20;99.90
13892;DHT22;7016;48.172;8.058;2023-02-01T00:23:59;5.20;99.90
13892;DHT22;7016;48.172;8.058;2023-02-01T00:26:39;5.20;99.90
13892;DHT22;7016;48.172;8.058;2023-02-01T00:29:09;5.20;99.90
13892;DHT22;7016;48.172;8.058;2023-02-01T00:31:35;5.20;99.90
13892;DHT22;7016;48.172;8.058;2023-02-01T00:34:01;5.20;99.90
13892;DHT22;7016;48.172;8.058;2023-02-01T00:36:27;5.20;99.90
13892;DHT22;7016;48.172;8.058;2023-02-01T00:38:53;5.20;99.90
13892;DHT22;7016;48.172;8.058;2023-02-01T00:41:20;5.20;99.90
13892;DHT22;7016;48.172;8.058;2023-02-01T00:43:47;5.20;99.90
13892;DHT22;7016;48.172;8.058;2023-02-01T00:46:14;5.10;99.90
13892;DHT22;7016;48.172;8.058;2023-02-01T00:48:40;5.10;99.90
13892;DHT22;7016;48.172;8.058;2023-02-01T00:51:08;5.10;99.90
13892;DHT22;7016;48.172;8.058;2023-02-01T00:53:35;5.10;99.90
13892;DHT22;7016;48.172;8.058;2023-02-01T00:56:00;5.10;99.90
13892;DHT22;7016;48.172;8.058;2023-02-01T00:58:27;5.10;99.90
13892;DHT22;7016;48.172;8.058;2023-02-01T01:03:30;5.10;99.90
13892;DHT22;7016;48.172;8.058;2023-02-01T01:05:59;5.10;99.90
13892;DHT22;7016;48.172;8.058;2023-02-01T01:08:25;5.10;99.90
13892;DHT22;7016;48.172;8.058;2023-02-01T01:10:51;5.20;99.90
13892;DHT22;7016;48.172;8.058;2023-02-01T01:13:17;5.20;99.90
13892;DHT22;7016;48.172;8.058;2023-02-01T01:15:43;5.10;99.90
13892;DHT22;7016;48.172;8.058;2023-02-01T01:18:08;5.20;99.90
13892;DHT22;7016;48.172;8.058;2023-02-01T01:20:37;5.20;99.90
13892;DHT22;7016;48.172;8.058;2023-02-01T01:23:03;5.20;99.90
13892;DHT22;7016;48.172;8.058;2023-02-01T01:25:29;5.20;99.90
13892;DHT22;7016;48.172;8.058;2023-02-01T01:27:55;5.20;99.90
13892;DHT22;7016;48.172;8.058;2023-02-01T01:30:20;5.20;99.90
13892;DHT22;7016;48.172;8.058;2023-02-01T01:32:46;5.10;99.90
13892;DHT22;7016;48.172;8.058;2023-02-01T01:35:12;5.10;99.90
13892;DHT22;7016;48.172;8.058;2023-02-01T01:37:38;5.10;99.90
13892;DHT22;7016;48.172;8.058;2023-02-01T01:40:05;5.10;99.90
13892;DHT22;7016;48.172;8.058;2023-02-01T01:42:37;5.10;99.90
13892;DHT22;7016;48.172;8.058;2023-02-01T01:47:52;5.00;99.90
13892;DHT22;7016;48.172;8.058;2023-02-01T01:50:23;5.10;99.90
13892;DHT22;7016;48.172;8.058;2023-02-01T01:52:51;5.00;99.90
13892;DHT22;7016;48.172;8.058;2023-02-01T01:55:19;5.00;99.90
13892;DHT22;7016;48.172;8.058;2023-02-01T01:57:51;5.00;99.90
13892;DHT22;7016;48.172;8.058;2023-02-01T02:00:20;5.00;99.90
13892;DHT22;7016;48.172;8.058;2023-02-01T02:02:50;5.00;99.90
13892;DHT22;7016;48.172;8.058;2023-02-01T02:05:18;5.00;99.90
13892;DHT22;7016;48.172;8.058;2023-02-01T02:07:46;5.10;99.90
13892;DHT22;7016;48.172;8.058;2023-02-01T02:10:16;5.00;99.90
13892;DHT22;7016;48.172;8.058;2023-02-01T02:12:44;4.90;99.90
13892;DHT22;7016;48.172;8.058;2023-02-01T02:15:12;4.90;99.90
13892;DHT22;7016;48.172;8.058;2023-02-01T02:34:05;5.20;99.90
13892;DHT22;7016;48.172;8.058;2023-02-01T02:41:48;5.20;99.90
13892;DHT22;7016;48.172;8.058;2023-02-01T02:47:48;5.10;99.90
13892;DHT22;7016;48.172;8.058;2023-02-01T02:50:35;5.10;99.90
13892;DHT22;7016;48.172;8.058;2023-02-01T02:56:15;5.00;99.90
13892;DHT22;7016;48.172;8.058;2023-02-01T02:58:59;5.10;99.90
13892;DHT22;7016;48.172;8.058;2023-02-01T03:01:45;5.10;99.90
13892;DHT22;7016;48.172;8.058;2023-02-01T03:04:29;5.10;99.90
13892;DHT22;7016;48.172;8.058;2023-02-01T03:06:55;5.10;99.90
13892;DHT22;7016;48.172;8.058;2023-02-01T03:09:23;5.20;99.90
13892;DHT22;7016;48.172;8.058;2023-02-01T03:11:56;5.20;99.90
13892;DHT22;7016;48.172;8.058;2023-02-01T03:14:43;5.10;99.90
13892;DHT22;7016;48.172;8.058;2023-02-01T03:17:20;5.20;99.90
13892;DHT22;7016;48.172;8.058;2023-02-01T03:19:48;5.10;99.90
13892;DHT22;7016;48.172;8.058;2023-02-01T03:22:24;5.00;99.90
13892;DHT22;7016;48.172;8.058;2023-02-01T03:24:59;5.00;99.90
13892;DHT22;7016;48.172;8.058;2023-02-01T03:27:36;5.00;99.90
13892;DHT22;7016;48.172;8.058;2023-02-01T03:32:38;5.00;99.90
13892;DHT22;7016;48.172;8.058;2023-02-01T03:41:11;5.00;99.90
13892;DHT22;7016;48.172;8.058;2023-02-01T03:43:57;5.00;99.90
13892;DHT22;7016;48.172;8.058;2023-02-01T03:46:32;5.00;99.90
13892;DHT22;7016;48.172;8.058;2023-02-01T03:49:01;5.10;99.90
13892;DHT22;7016;48.172;8.058;2023-02-01T03:51:28;5.20;99.90
13892;DHT22;7016;48.172;8.058;2023-02-01T03:53:56;4.70;99.90
13892;DHT22;7016;48.172;8.058;2023-02-01T03:56:23;5.20;99.90
13892;DHT22;7016;48.172;8.058;2023-02-01T03:58:51;5.20;99.90
13892;DHT22;7016;48.172;8.058;2023-02-01T04:01:27;5.10;99.90
13892;DHT22;7016;48.172;8.058;2023-02-01T04:03:52;5.20;99.90
13892;DHT22;7016;48.172;8.058;2023-02-01T04:06:18;5.20;99.90
13892;DHT22;7016;48.172;8.058;2023-02-01T04:08:44;5.20;99.90
13892;DHT22;7016;48.172;8.058;2023-02-01T04:11:10;5.20;99.90
13892;DHT22;7016;48.172;8.058;2023-02-01T04:13:35;5.10;99.90
13892;DHT22;7016;48.172;8.058;2023-02-01T04:16:01;5.10;99.90
13892;DHT22;7016;48.172;8.058;2023-02-01T04:18:27;5.00;99.90
13892;DHT22;7016;48.172;8.058;2023-02-01T04:20:53;5.10;99.90
13892;DHT22;7016;48.172;8.058;2023-02-01T04:23:18;5.00;99.90
13892;DHT22;7016;48.172;8.058;2023-02-01T04:25:44;5.00;99.90
13892;DHT22;7016;48.172;8.058;2023-02-01T04:28:10;5.10;99.90
13892;DHT22;7016;48.172;8.058;2023-02-01T04:30:36;5.10;99.90
13892;DHT22;7016;48.172;8.058;2023-02-01T04:33:01;4.90;99.90
13892;DHT22;7016;48.172;8.058;2023-02-01T04:35:31;4.90;99.90
13892;DHT22;7016;48.172;8.058;2023-02-01T04:37:56;5.00;99.90
13892;DHT22;7016;48.172;8.058;2023-02-01T04:40:22;5.00;99.90
13892;DHT22;7016;48.172;8.058;2023-02-01T04:42:48;5.00;99.90
13892;DHT22;7016;48.172;8.058;2023-02-01T04:45:13;5.00;99.90
13892;DHT22;7016;48.172;8.058;2023-02-01T04:47:39;5.00;99.90
13892;DHT22;7016;48.172;8.058;2023-02-01T04:50:05;5.00;99.90
13892;DHT22;7016;48.172;8.058;2023-02-01T04:52:31;5.00;99.90
13892;DHT22;7016;48.172;8.058;2023-02-01T04:54:57;5.00;99.90
13892;DHT22;7016;48.172;8.058;2023-02-01T04:57:25;4.90;99.90
13892;DHT22;7016;48.172;8.058;2023-02-01T04:59:50;4.70;99.90
13892;DHT22;7016;48.172;8.058;2023-02-01T05:02:16;4.60;99.90
13892;DHT22;7016;48.172;8.058;2023-02-01T05:04:42;4.70;99.90
13892;DHT22;7016;48.172;8.058;2023-02-01T05:07:08;4.80;99.90
13892;DHT22;7016;48.172;8.058;2023-02-01T05:09:33;4.80;99.90
13892;DHT22;7016;48.172;8.058;2023-02-01T05:11:59;4.80;99.90
13892;DHT22;7016;48.172;8.058;2023-02-01T05:14:43;4.80;99.90
13892;DHT22;7016;48.172;8.058;2023-02-01T05:17:09;4.80;99.90
13892;DHT22;7016;48.172;8.058;2023-02-01T05:19:34;4.80;99.90
13892;DHT22;7016;48.172;8.058;2023-02-01T05:22:00;4.90;99.90
13892;DHT22;7016;48.172;8.058;2023-02-01T05:24:26;4.90;99.90
13892;DHT22;7016;48.172;8.058;2023-02-01T05:26:52;4.90;99.90
13892;DHT22;7016;48.172;8.058;2023-02-01T05:29:18;5.00;99.90
13892;DHT22;7016;48.172;8.058;2023-02-01T05:31:45;5.00;99.90
13892;DHT22;7016;48.172;8.058;2023-02-01T05:34:11;5.00;99.90
13892;DHT22;7016;48.172;8.058;2023-02-01T05:36:37;5.00;99.90
13892;DHT22;7016;48.172;8.058;2023-02-01T05:39:03;5.00;99.90
13892;DHT22;7016;48.172;8.058;2023-02-01T05:41:29;4.90;99.90
13892;DHT22;7016;48.172;8.058;2023-02-01T05:43:54;4.80;99.90
13892;DHT22;7016;48.172;8.058;2023-02-01T05:46:20;4.80;99.90
13892;DHT22;7016;48.172;8.058;2023-02-01T05:48:46;4.80;99.90
13892;DHT22;7016;48.172;8.058;2023-02-01T05:51:12;4.80;99.90
13892;DHT22;7016;48.172;8.058;2023-02-01T05:53:38;4.50;99.90
13892;DHT22;7016;48.172;8.058;2023-02-01T05:56:04;4.60;99.90
13892;DHT22;7016;48.172;8.058;2023-02-01T05:58:30;4.50;99.90
13892;DHT22;7016;48.172;8.058;2023-02-01T06:00:59;4.60;99.90
13892;DHT22;7016;48.172;8.058;2023-02-01T06:03:26;4.50;99.90
13892;DHT22;7016;48.172;8.058;2023-02-01T06:05:51;4.50;99.90
13892;DHT22;7016;48.172;8.058;2023-02-01T06:08:17;4.60;99.90
13892;DHT22;7016;48.172;8.058;2023-02-01T06:10:43;4.50;99.90
13892;DHT22;7016;48.172;8.058;2023-02-01T06:13:09;4.60;99.90
13892;DHT22;7016;48.172;8.058;2023-02-01T06:15:34;4.60;99.90
13892;DHT22;7016;48.172;8.058;2023-02-01T06:18:03;4.60;99.90
13892;DHT22;7016;48.172;8.058;2023-02-01T06:20:29;4.60;99.90
13892;DHT22;7016;48.172;8.058;2023-02-01T06:23:01;4.60;99.90
13892;DHT22;7016;48.172;8.058;2023-02-01T06:25:35;4.90;99.90
13892;DHT22;7016;48.172;8.058;2023-02-01T06:28:01;4.40;99.90
13892;DHT22;7016;48.172;8.058;2023-02-01T06:30:27;4.40;99.90
13892;DHT22;7016;48.172;8.058;2023-02-01T06:32:53;4.50;99.90
13892;DHT22;7016;48.172;8.058;2023-02-01T06:35:19;4.50;99.90
13892;DHT22;7016;48.172;8.058;2023-02-01T06:37:45;4.50;99.90
13892;DHT22;7016;48.172;8.058;2023-02-01T06:40:11;4.40;99.90
13892;DHT22;7016;48.172;8.058;2023-02-01T06:42:37;4.30;99.90
13892;DHT22;7016;48.172;8.058;2023-02-01T06:45:03;4.10;99.90
13892;DHT22;7016;48.172;8.058;2023-02-01T06:47:29;4.10;99.90
13892;DHT22;7016;48.172;8.058;2023-02-01T06:49:54;4.30;99.90
13892;DHT22;7016;48.172;8.058;2023-02-01T06:52:20;4.30;99.90
13892;DHT22;7016;48.172;8.058;2023-02-01T06:54:46;4.20;99.90
13892;DHT22;7016;48.172;8.058;2023-02-01T06:57:11;4.10;99.90
13892;DHT22;7016;48.172;8.058;2023-02-01T06:59:37;4.20;99.90
13892;DHT22;7016;48.172;8.058;2023-02-01T07:02:03;4.30;99.90
13892;DHT22;7016;48.172;8.058;2023-02-01T07:04:29;4.30;99.90
13892;DHT22;7016;48.172;8.058;2023-02-01T07:06:55;4.30;99.90
13892;DHT22;7016;48.172;8.058;2023-02-01T07:09:21;4.10;99.90
13892;DHT22;7016;48.172;8.058;2023-02-01T07:11:47;4.30;99.90
13892;DHT22;7016;48.172;8.058;2023-02-01T07:14:13;4.40;99.90
13892;DHT22;7016;48.172;8.058;2023-02-01T07:16:38;4.50;99.90
13892;DHT22;7016;48.172;8.058;2023-02-01T07:19:04;4.60;99.90
13892;DHT22;7016;48.172;8.058;2023-02-01T07:21:30;4.50;99.90
13892;DHT22;7016;48.172;8.058;2023-02-01T07:23:56;4.50;99.90
13892;DHT22;7016;48.172;8.058;2023-02-01T07:26:21;4.60;99.90
13892;DHT22;7016;48.172;8.058;2023-02-01T07:28:47;4.60;99.90
13892;DHT22;7016;48.172;8.058;2023-02-01T07:31:17;4.30;99.90
13892;DHT22;7016;48.172;8.058;2023-02-01T07:33:45;4.40;99.90
13892;DHT22;7016;48.172;8.058;2023-02-01T07:36:15;4.40;99.90
13892;DHT22;7016;48.172;8.058;2023-02-01T07:38:42;4.20;99.90
13892;DHT22;7016;48.172;8.058;2023-02-01T07:41:08;4.10;99.90
13892;DHT22;7016;48.172;8.058;2023-02-01T07:43:34;4.30;99.90
13892;DHT22;7016;48.172;8.058;2023-02-01T07:46:01;4.30;99.90
13892;DHT22;7016;48.172;8.058;2023-02-01T07:48:27;4.40;99.90
13892;DHT22;7016;48.172;8.058;2023-02-01T07:51:00;4.40;99.90
13892;DHT22;7016;48.172;8.058;2023-02-01T07:53:26;4.10;99.90
13892;DHT22;7016;48.172;8.058;2023-02-01T07:55:53;4.10;99.90
13892;DHT22;7016;48.172;8.058;2023-02-01T07:58:19;4.10;99.90
13892;DHT22;7016;48.172;8.058;2023-02-01T08:00:44;4.20;99.90
13892;DHT22;7016;48.172;8.058;2023-02-01T08:03:29;3.90;99.90
13892;DHT22;7016;48.172;8.058;2023-02-01T08:05:55;3.90;99.90
13892;DHT22;7016;48.172;8.058;2023-02-01T08:08:21;4.00;99.90
13892;DHT22;7016;48.172;8.058;2023-02-01T08:10:47;4.20;99.90
13892;DHT22;7016;48.172;8.058;2023-02-01T08:13:14;4.20;99.90
13892;DHT22;7016;48.172;8.058;2023-02-01T08:15:40;4.20;99.90
13892;DHT22;7016;48.172;8.058;2023-02-01T08:18:05;4.30;99.90
13892;DHT22;7016;48.172;8.058;2023-02-01T08:20:31;4.30;99.90
13892;DHT22;7016;48.172;8.058;2023-02-01T08:22:57;4.20;99.90
13892;DHT22;7016;48.172;8.058;2023-02-01T08:25:23;4.30;99.90
13892;DHT22;7016;48.172;8.058;2023-02-01T08:27:49;4.30;99.90
13892;DHT22;7016;48.172;8.058;2023-02-01T08:30:16;4.30;99.90
13892;DHT22;7016;48.172;8.058;2023-02-01T08:32:41;4.30;99.90
13892;DHT22;7016;48.172;8.058;2023-02-01T08:35:09;4.60;99.90
13892;DHT22;7016;48.172;8.058;2023-02-01T08:37:34;4.60;99.90
13892;DHT22;7016;48.172;8.058;2023-02-01T08:40:01;4.70;99.90
13892;DHT22;7016;48.172;8.058;2023-02-01T08:42:26;4.70;99.90
13892;DHT22;7016;48.172;8.058;2023-02-01T08:45:11;4.50;99.90
13892;DHT22;7016;48.172;8.058;2023-02-01T08:47:37;4.40;99.90
13892;DHT22;7016;48.172;8.058;2023-02-01T08:50:03;4.30;99.90
13892;DHT22;7016;48.172;8.058;2023-02-01T08:52:29;4.30;99.90
13892;DHT22;7016;48.172;8.058;2023-02-01T08:54:55;4.50;99.90
13892;DHT22;7016;48.172;8.058;2023-02-01T08:57:20;4.40;99.90
13892;DHT22;7016;48.172;8.058;2023-02-01T08:59:46;4.50;99.90
13892;DHT22;7016;48.172;8.058;2023-02-01T09:02:14;4.50;99.90
13892;DHT22;7016;48.172;8.058;2023-02-01T09:04:41;4.40;99.90
13892;DHT22;7016;48.172;8.058;2023-02-01T09:07:07;4.30;99.90
13892;DHT22;7016;48.172;8.058;2023-02-01T09:09:33;4.40;99.90
13892;DHT22;7016;48.172;8.058;2023-02-01T09:11:59;4.50;99.90
13892;DHT22;7016;48.172;8.058;2023-02-01T09:14:25;4.50;99.90
13892;DHT22;7016;48.172;8.058;2023-02-01T09:16:51;4.50;99.90
13892;DHT22;7016;48.172;8.058;2023-02-01T09:19:16;4.50;99.90
13892;DHT22;7016;48.172;8.058;2023-02-01T09:21:42;4.40;99.90
13892;DHT22;7016;48.172;8.058;2023-02-01T09:24:11;4.50;99.90
13892;DHT22;7016;48.172;8.058;2023-02-01T09:26:36;4.50;99.90
13892;DHT22;7016;48.172;8.058;2023-02-01T09:29:03;4.40;99.90
13892;DHT22;7016;48.172;8.058;2023-02-01T09:31:32;4.60;99.90
13892;DHT22;7016;48.172;8.058;2023-02-01T09:33:57;4.70;99.90
13892;DHT22;7016;48.172;8.058;2023-02-01T09:36:23;4.70;99.90
13892;DHT22;7016;48.172;8.058;2023-02-01T09:38:49;4.60;99.90
13892;DHT22;7016;48.172;8.058;2023-02-01T09:46:59;4.60;99.90
13892;DHT22;7016;48.172;8.058;2023-02-01T09:49:31;4.60;99.90
13892;DHT22;7016;48.172;8.058;2023-02-01T09:52:00;4.60;99.90
13892;DHT22;7016;48.172;8.058;2023-02-01T09:54:29;4.60;99.90
13892;DHT22;7016;48.172;8.058;2023-02-01T09:57:05;4.60;99.90
13892;DHT22;7016;48.172;8.058;2023-02-01T09:59:39;4.50;99.90
13892;DHT22;7016;48.172;8.058;2023-02-01T10:02:39;4.70;99.90
13892;DHT22;7016;48.172;8.058;2023-02-01T10:05:01;4.60;99.90
13892;DHT22;7016;48.172;8.058;2023-02-01T10:12:52;4.70;99.90
13892;DHT22;7016;48.172;8.058;2023-02-01T10:20:44;4.70;99.90
13892;DHT22;7016;48.172;8.058;2023-02-01T10:26:25;4.80;99.90
13892;DHT22;7016;48.172;8.058;2023-02-01T10:29:16;4.80;99.90
13892;DHT22;7016;48.172;8.058;2023-02-01T10:31:44;4.90;99.90
13892;DHT22;7016;48.172;8.058;2023-02-01T10:34:27;5.10;99.90
13892;DHT22;7016;48.172;8.058;2023-02-01T10:36:59;5.20;99.90
13892;DHT22;7016;48.172;8.058;2023-02-01T10:39:26;5.30;99.90
13892;DHT22;7016;48.172;8.058;2023-02-01T10:41:52;5.20;99.90
13892;DHT22;7016;48.172;8.058;2023-02-01T10:44:26;5.10;99.90
13892;DHT22;7016;48.172;8.058;2023-02-01T10:46:53;5.10;99.90
13892;DHT22;7016;48.172;8.058;2023-02-01T10:49:40;5.10;99.90
13892;DHT22;7016;48.172;8.058;2023-02-01T10:52:16;5.20;99.90
13892;DHT22;7016;48.172;8.058;2023-02-01T10:54:42;5.10;99.90
13892;DHT22;7016;48.172;8.058;2023-02-01T10:57:26;5.00;99.90
13892;DHT22;7016;48.172;8.058;2023-02-01T10:59:55;5.10;99.90
13892;DHT22;7016;48.172;8.058;2023-02-01T11:04:47;5.30;99.90
13892;DHT22;7016;48.172;8.058;2023-02-01T11:07:17;5.50;99.90
13892;DHT22;7016;48.172;8.058;2023-02-01T11:09:50;5.50;99.90
13892;DHT22;7016;48.172;8.058;2023-02-01T11:12:35;5.40;99.90
13892;DHT22;7016;48.172;8.058;2023-02-01T11:15:22;5.40;99.90
13892;DHT22;7016;48.172;8.058;2023-02-01T11:17:50;5.30;99.90
13892;DHT22;7016;48.172;8.058;2023-02-01T11:20:41;5.30;99.90
13892;DHT22;7016;48.172;8.058;2023-02-01T11:23:16;5.40;99.90
13892;DHT22;7016;48.172;8.058;2023-02-01T11:25:48;5.40;99.90
13892;DHT22;7016;48.172;8.058;2023-02-01T11:28:15;5.30;99.90
13892;DHT22;7016;48.172;8.058;2023-02-01T11:30:43;5.30;99.90
13892;DHT22;7016;48.172;8.058;2023-02-01T11:33:16;5.20;99.90
13892;DHT22;7016;48.172;8.058;2023-02-01T11:35:43;5.20;99.90
13892;DHT22;7016;48.172;8.058;2023-02-01T11:38:30;5.20;99.90
13892;DHT22;7016;48.172;8.058;2023-02-01T11:44:21;5.20;99.90
13892;DHT22;7016;48.172;8.058;2023-02-01T11:46:47;5.30;99.90
13892;DHT22;7016;48.172;8.058;2023-02-01T11:49:25;5.20;99.90
13892;DHT22;7016;48.172;8.058;2023-02-01T12:08:12;5.50;99.90
13892;DHT22;7016;48.172;8.058;2023-02-01T12:29:15;5.70;99.90
13892;DHT22;7016;48.172;8.058;2023-02-01T12:35:24;5.80;99.90
13892;DHT22;7016;48.172;8.058;2023-02-01T12:38:27;5.70;99.90
13892;DHT22;7016;48.172;8.058;2023-02-01T12:44:17;5.90;99.90
13892;DHT22;7016;48.172;8.058;2023-02-01T12:46:58;5.90;99.90
13892;DHT22;7016;48.172;8.058;2023-02-01T12:52:28;5.90;99.90
13892;DHT22;7016;48.172;8.058;2023-02-01T12:55:07;5.80;99.90
13892;DHT22;7016;48.172;8.058;2023-02-01T12:57:38;5.80;99.90
13892;DHT22;7016;48.172;8.058;2023-02-01T13:03:03;5.30;99.90
13892;DHT22;7016;48.172;8.058;2023-02-01T13:05:50;6.00;99.90
13892;DHT22;7016;48.172;8.058;2023-02-01T13:08:23;7.80;99.90
13892;DHT22;7016;48.172;8.058;2023-02-01T13:11:03;5.90;99.90
13892;DHT22;7016;48.172;8.058;2023-02-01T13:14:02;5.90;99.90
13892;DHT22;7016;48.172;8.058;2023-02-01T13:19:36;5.80;99.90
13892;DHT22;7016;48.172;8.058;2023-02-01T13:22:19;5.80;99.90
13892;DHT22;7016;48.172;8.058;2023-02-01T13:24:57;5.70;99.90
13892;DHT22;7016;48.172;8.058;2023-02-01T13:27:27;5.70;99.90
13892;DHT22;7016;48.172;8.058;2023-02-01T13:30:10;5.90;99.90
13892;DHT22;7016;48.172;8.058;2023-02-01T13:35:57;5.60;99.90
13892;DHT22;7016;48.172;8.058;2023-02-01T13:41:32;5.80;99.90
13892;DHT22;7016;48.172;8.058;2023-02-01T13:44:11;5.80;99.90
13892;DHT22;7016;48.172;8.058;2023-02-01T13:46:44;5.80;99.90
13892;DHT22;7016;48.172;8.058;2023-02-01T13:49:23;5.90;99.90
13892;DHT22;7016;48.172;8.058;2023-02-01T13:51:55;5.90;99.90
13892;DHT22;7016;48.172;8.058;2023-02-01T13:54:33;5.90;99.90
13892;DHT22;7016;48.172;8.058;2023-02-01T13:57:01;5.80;99.90
13892;DHT22;7016;48.172;8.058;2023-02-01T14:05:03;5.60;99.90
13892;DHT22;7016;48.172;8.058;2023-02-01T14:07:29;5.60;99.90
13892;DHT22;7016;48.172;8.058;2023-02-01T14:09:55;5.70;99.90
13892;DHT22;7016;48.172;8.058;2023-02-01T14:15:19;5.60;99.90
13892;DHT22;7016;48.172;8.058;2023-02-01T14:17:47;5.70;99.90
13892;DHT22;7016;48.172;8.058;2023-02-01T14:20:41;5.70;99.90
13892;DHT22;7016;48.172;8.058;2023-02-01T14:23:17;5.90;99.90
13892;DHT22;7016;48.172;8.058;2023-02-01T14:25:45;5.90;99.90
13892;DHT22;7016;48.172;8.058;2023-02-01T14:28:31;5.80;99.90
13892;DHT22;7016;48.172;8.058;2023-02-01T14:31:28;5.70;99.90
13892;DHT22;7016;48.172;8.058;2023-02-01T14:34:15;5.80;99.90
13892;DHT22;7016;48.172;8.058;2023-02-01T14:36:45;5.80;99.90
13892;DHT22;7016;48.172;8.058;2023-02-01T14:39:25;5.80;99.90
13892;DHT22;7016;48.172;8.058;2023-02-01T14:41:58;5.80;99.90
13892;DHT22;7016;48.172;8.058;2023-02-01T14:44:27;5.70;99.90
13892;DHT22;7016;48.172;8.058;2023-02-01T14:49:59;5.70;99.90
13892;DHT22;7016;48.172;8.058;2023-02-01T14:52:37;5.90;99.90
13892;DHT22;7016;48.172;8.058;2023-02-01T14:55:16;5.80;99.90
13892;DHT22;7016;48.172;8.058;2023-02-01T14:57:46;5.80;99.90
13892;DHT22;7016;48.172;8.058;2023-02-01T15:02:48;5.80;99.90
13892;DHT22;7016;48.172;8.058;2023-02-01T15:05:33;5.80;99.90
13892;DHT22;7016;48.172;8.058;2023-02-01T15:08:21;5.90;99.90
13892;DHT22;7016;48.172;8.058;2023-02-01T15:10:50;5.90;99.90
13892;DHT22;7016;48.172;8.058;2023-02-01T15:13:25;5.90;99.90
13892;DHT22;7016;48.172;8.058;2023-02-01T15:16:05;5.90;99.90
13892;DHT22;7016;48.172;8.058;2023-02-01T15:18:34;5.90;99.90
13892;DHT22;7016;48.172;8.058;2023-02-01T15:21:01;5.90;99.90
13892;DHT22;7016;48.172;8.058;2023-02-01T15:23:28;5.90;99.90
13892;DHT22;7016;48.172;8.058;2023-02-01T15:25:54;5.90;99.90
13892;DHT22;7016;48.172;8.058;2023-02-01T15:28:20;5.90;99.90
13892;DHT22;7016;48.172;8.058;2023-02-01T15:31:00;5.90;99.90
13892;DHT22;7016;48.172;8.058;2023-02-01T15:33:27;5.90;99.90
13892;DHT22;7016;48.172;8.058;2023-02-01T15:38:33;6.00;99.90
13892;DHT22;7016;48.172;8.058;2023-02-01T15:46:45;5.80;99.90
13892;DHT22;7016;48.172;8.058;2023-02-01T15:49:32;6.00;99.90
13892;DHT22;7016;48.172;8.058;2023-02-01T15:52:02;6.00;99.90
13892;DHT22;7016;48.172;8.058;2023-02-01T15:54:37;6.00;99.90
13892;DHT22;7016;48.172;8.058;2023-02-01T15:57:06;5.90;99.90
13892;DHT22;7016;48.172;8.058;2023-02-01T15:59:41;5.90;99.90
13892;DHT22;7016;48.172;8.058;2023-02-01T16:04:53;5.90;99.90
13892;DHT22;7016;48.172;8.058;2023-02-01T16:07:31;5.90;99.90
13892;DHT22;7016;48.172;8.058;2023-02-01T16:10:01;5.90;99.90
13892;DHT22;7016;48.172;8.058;2023-02-01T16:15:04;5.90;99.90
13892;DHT22;7016;48.172;8.058;2023-02-01T16:17:31;5.90;99.90
13892;DHT22;7016;48.172;8.058;2023-02-01T16:19:56;6.00;99.90
13892;DHT22;7016;48.172;8.058;2023-02-01T16:22:23;5.90;99.90
13892;DHT22;7016;48.172;8.058;2023-02-01T16:24:49;5.80;99.90
13892;DHT22;7016;48.172;8.058;2023-02-01T16:27:15;5.90;99.90
13892;DHT22;7016;48.172;8.058;2023-02-01T16:29:41;5.90;99.90
13892;DHT22;7016;48.172;8.058;2023-02-01T16:32:13;5.90;99.90
13892;DHT22;7016;48.172;8.058;2023-02-01T16:34:41;5.90;99.90
13892;DHT22;7016;48.172;8.058;2023-02-01T16:37:12;5.80;99.90
13892;DHT22;7016;48.172;8.058;2023-02-01T16:39:38;5.80;99.90
13892;DHT22;7016;48.172;8.058;2023-02-01T16:42:11;5.80;99.90
13892;DHT22;7016;48.172;8.058;2023-02-01T16:44:37;5.80;99.90
13892;DHT22;7016;48.172;8.058;2023-02-01T16:47:03;5.80;99.90
13892;DHT22;7016;48.172;8.058;2023-02-01T16:49:33;5.80;99.90
13892;DHT22;7016;48.172;8.058;2023-02-01T16:51:59;5.90;99.90
13892;DHT22;7016;48.172;8.058;2023-02-01T16:54:25;5.80;99.90
13892;DHT22;7016;48.172;8.058;2023-02-01T16:56:52;5.80;99.90
13892;DHT22;7016;48.172;8.058;2023-02-01T16:59:19;5.80;99.90
13892;DHT22;7016;48.172;8.058;2023-02-01T17:01:45;5.80;99.90
13892;DHT22;7016;48.172;8.058;2023-02-01T17:04:11;5.80;99.90
13892;DHT22;7016;48.172;8.058;2023-02-01T17:06:37;5.80;99.90
13892;DHT22;7016;48.172;8.058;2023-02-01T17:09:03;5.80;99.90
13892;DHT22;7016;48.172;8.058;2023-02-01T17:11:29;5.90;99.90
13892;DHT22;7016;48.172;8.058;2023-02-01T17:14:13;6.00;99.90
13892;DHT22;7016;48.172;8.058;2023-02-01T17:16:39;6.00;99.90
13892;DHT22;7016;48.172;8.058;2023-02-01T17:19:18;5.90;99.90
13892;DHT22;7016;48.172;8.058;2023-02-01T17:21:49;5.80;99.90
13892;DHT22;7016;48.172;8.058;2023-02-01T17:24:18;5.80;99.90
13892;DHT22;7016;48.172;8.058;2023-02-01T17:26:44;5.70;99.90
13892;DHT22;7016;48.172;8.058;2023-02-01T17:29:11;5.80;99.90
13892;DHT22;7016;48.172;8.058;2023-02-01T17:31:39;5.80;99.90
13892;DHT22;7016;48.172;8.058;2023-02-01T17:34:06;5.80;99.90
13892;DHT22;7016;48.172;8.058;2023-02-01T17:36:32;5.80;99.90
13892;DHT22;7016;48.172;8.058;2023-02-01T17:38:57;5.80;99.90
13892;DHT22;7016;48.172;8.058;2023-02-01T17:41:23;5.80;99.90
13892;DHT22;7016;48.172;8.058;2023-02-01T17:43:49;5.80;99.90
13892;DHT22;7016;48.172;8.058;2023-02-01T17:46:17;5.80;99.90
13892;DHT22;7016;48.172;8.058;2023-02-01T17:48:52;5.80;99.90
13892;DHT22;7016;48.172;8.058;2023-02-01T17:51:22;5.70;99.90
13892;DHT22;7016;48.172;8.058;2023-02-01T17:53:48;5.60;99.90
13892;DHT22;7016;48.172;8.058;2023-02-01T17:56:16;5.70;99.90
13892;DHT22;7016;48.172;8.058;2023-02-01T17:58:42;5.70;99.90
13892;DHT22;7016;48.172;8.058;2023-02-01T18:01:26;5.60;99.90
13892;DHT22;7016;48.172;8.058;2023-02-01T18:03:52;5.60;99.90
13892;DHT22;7016;48.172;8.058;2023-02-01T18:06:25;5.60;99.90
13892;DHT22;7016;48.172;8.058;2023-02-01T18:08:52;5.70;99.90
13892;DHT22;7016;48.172;8.058;2023-02-01T18:11:21;5.70;99.90
13892;DHT22;7016;48.172;8.058;2023-02-01T18:13:48;5.80;99.90
13892;DHT22;7016;48.172;8.058;2023-02-01T18:18:43;5.80;99.90
13892;DHT22;7016;48.172;8.058;2023-02-01T18:21:09;5.80;99.90
13892;DHT22;7016;48.172;8.058;2023-02-01T18:23:35;5.80;99.90
13892;DHT22;7016;48.172;8.058;2023-02-01T18:26:01;5.90;99.90
13892;DHT22;7016;48.172;8.058;2023-02-01T18:28:28;5.80;99.90
13892;DHT22;7016;48.172;8.058;2023-02-01T18:30:54;5.70;99.90
13892;DHT22;7016;48.172;8.058;2023-02-01T18:33:20;5.70;99.90
13892;DHT22;7016;48.172;8.058;2023-02-01T18:35:45;5.70;99.90
13892;DHT22;7016;48.172;8.058;2023-02-01T18:38:11;5.70;99.90
13892;DHT22;7016;48.172;8.058;2023-02-01T18:40:52;5.60;99.90
13892;DHT22;7016;48.172;8.058;2023-02-01T18:43:19;5.60;99.90
13892;DHT22;7016;48.172;8.058;2023-02-01T18:45:46;5.60;99.90
13892;DHT22;7016;48.172;8.058;2023-02-01T18:48:14;5.50;99.90
13892;DHT22;7016;48.172;8.058;2023-02-01T18:50:42;5.60;99.90
13892;DHT22;7016;48.172;8.058;2023-02-01T18:53:14;5.60;99.90